sensor_id;sensor_type;location;lat;lon;timestamp;P1;durP1;ratioP1;P2;durP2;ratioP2
2023;SDS011;1016;48.770;9.154;2023-08-30T00:00:57;29.40;;;5.93;;
2023;SDS011;1016;48.770;9.154;2023-08-30T00:03:23;29.30;;;5.57;;
2023;SDS011;1016;48.770;9.154;2023-08-30T00:05:48;29.57;;;5.93;;
2023;SDS011;1016;48.770;9.154;2023-08-30T00:08:14;30.13;;;5.90;;
2023;SDS011;1016;48.770;9.154;2023-08-30T00:10:43;28.80;;;5.40;;
2023;SDS011;1016;48.770;9.154;2023-08-30T00:13:09;28.90;;;5.73;;
2023;SDS011;1016;48.770;9.154;2023-08-30T00:15:35;29.07;;;5.50;;
2023;SDS011;1016;48.770;9.154;2023-08-30T00:18:00;32.20;;;6.10;;
2023;SDS011;1016;48.770;9.154;2023-08-30T00:20:26;29.90;;;5.73;;
2023;SDS011;1016;48.770;9.154;2023-08-30T00:22:52;29.23;;;5.60;;
2023;SDS011;1016;48.770;9.154;2023-08-30T00:25:17;28.70;;;5.63;;
2023;SDS011;1016;48.770;9.154;2023-08-30T00:27:43;30.07;;;5.73;;
2023;SDS011;1016;48.770;9.154;2023-08-30T00:30:09;28.97;;;5.87;;
2023;SDS011;1016;48.770;9.154;2023-08-30T00:32:35;29.60;;;5.90;;
2023;SDS011;1016;48.770;9.154;2023-08-30T00:35:00;30.60;;;6.50;;
2023;SDS011;1016;48.770;9.154;2023-08-30T00:37:27;28.73;;;5.70;;
2023;SDS011;1016;48.770;9.154;2023-08-30T00:39:52;29.53;;;6.27;;
2023;SDS011;1016;48.770;9.154;2023-08-30T00:42:18;29.90;;;6.50;;
2023;SDS011;1016;48.770;9.154;2023-08-30T00:44:43;30.07;;;5.93;;
2023;SDS011;1016;48.770;9.154;2023-08-30T00:47:09;30.00;;;6.10;;
2023;SDS011;1016;48.770;9.154;2023-08-30T00:49:35;28.77;;;6.13;;
2023;SDS011;1016;48.770;9.154;2023-08-30T00:52:02;28.87;;;5.67;;
2023;SDS011;1016;48.770;9.154;2023-08-30T00:54:30;28.83;;;5.57;;
2023;SDS011;1016;48.770;9.154;2023-08-30T00:56:56;29.10;;;5.60;;
2023;SDS011;1016;48.770;9.154;2023-08-30T00:59:24;30.60;;;6.47;;
2023;SDS011;1016;48.770;9.154;2023-08-30T01:01:50;29.27;;;5.83;;
2023;SDS011;1016;48.770;9.154;2023-08-30T01:04:16;28.87;;;5.50;;
2023;SDS011;1016;48.770;9.154;2023-08-30T01:06:43;30.10;;;5.60;;
2023;SDS011;1016;48.770;9.154;2023-08-30T01:09:08;28.97;;;5.40;;
2023;SDS011;1016;48.770;9.154;2023-08-30T01:14:39;29.40;;;5.30;;
2023;SDS011;1016;48.770;9.154;2023-08-30T01:17:09;28.63;;;5.33;;
2023;SDS011;1016;48.770;9.154;2023-08-30T01:19:51;28.90;;;5.30;;
2023;SDS011;1016;48.770;9.154;2023-08-30T01:28:01;29.60;;;4.90;;
2023;SDS011;1016;48.770;9.154;2023-08-30T01:30:29;30.60;;;5.17;;
2023;SDS011;1016;48.770;9.154;2023-08-30T01:32:58;29.37;;;5.40;;
2023;SDS011;1016;48.770;9.154;2023-08-30T01:35:28;29.00;;;5.10;;
2023;SDS011;1016;48.770;9.154;2023-08-30T01:37:58;32.07;;;5.37;;
2023;SDS011;1016;48.770;9.154;2023-08-30T01:40:25;30.10;;;5.50;;
2023;SDS011;1016;48.770;9.154;2023-08-30T01:42:53;28.73;;;5.00;;
2023;SDS011;1016;48.770;9.154;2023-08-30T01:45:20;28.37;;;5.00;;
2023;SDS011;1016;48.770;9.154;2023-08-30T01:47:47;30.30;;;5.13;;
2023;SDS011;1016;48.770;9.154;2023-08-30T01:50:14;29.27;;;5.10;;
2023;SDS011;1016;48.770;9.154;2023-08-30T01:52:40;29.47;;;4.70;;
2023;SDS011;1016;48.770;9.154;2023-08-30T01:55:07;29.30;;;5.20;;
2023;SDS011;1016;48.770;9.154;2023-08-30T01:57:34;29.57;;;5.20;;
2023;SDS011;1016;48.770;9.154;2023-08-30T01:59:59;29.20;;;4.83;;
2023;SDS011;1016;48.770;9.154;2023-08-30T02:02:28;28.50;;;5.03;;
2023;SDS011;1016;48.770;9.154;2023-08-30T02:04:54;31.37;;;4.30;;
2023;SDS011;1016;48.770;9.154;2023-08-30T02:07:21;29.10;;;4.97;;
2023;SDS011;1016;48.770;9.154;2023-08-30T02:10:09;28.90;;;4.47;;
2023;SDS011;1016;48.770;9.154;2023-08-30T02:12:42;28.60;;;4.57;;
2023;SDS011;1016;48.770;9.154;2023-08-30T02:15:12;29.00;;;5.00;;
2023;SDS011;1016;48.770;9.154;2023-08-30T02:17:39;28.80;;;4.77;;
2023;SDS011;1016;48.770;9.154;2023-08-30T02:20:05;29.50;;;5.17;;
2023;SDS011;1016;48.770;9.154;2023-08-30T02:22:32;28.77;;;4.57;;
2023;SDS011;1016;48.770;9.154;2023-08-30T02:24:58;28.80;;;4.90;;
2023;SDS011;1016;48.770;9.154;2023-08-30T02:27:24;28.80;;;4.97;;
2023;SDS011;1016;48.770;9.154;2023-08-30T02:29:50;28.33;;;4.77;;
2023;SDS011;1016;48.770;9.154;2023-08-30T02:32:15;28.60;;;4.90;;
2023;SDS011;1016;48.770;9.154;2023-08-30T02:34:45;28.40;;;4.60;;
2023;SDS011;1016;48.770;9.154;2023-08-30T02:37:14;28.27;;;4.50;;
2023;SDS011;1016;48.770;9.154;2023-08-30T02:39:39;29.30;;;4.80;;
2023;SDS011;1016;48.770;9.154;2023-08-30T02:42:05;29.47;;;4.60;;
2023;SDS011;1016;48.770;9.154;2023-08-30T02:44:31;28.77;;;4.80;;
2023;SDS011;1016;48.770;9.154;2023-08-30T02:46:57;30.07;;;4.70;;
2023;SDS011;1016;48.770;9.154;2023-08-30T02:49:22;28.37;;;4.30;;
2023;SDS011;1016;48.770;9.154;2023-08-30T02:51:48;29.33;;;4.70;;
2023;SDS011;1016;48.770;9.154;2023-08-30T02:54:13;29.00;;;4.60;;
2023;SDS011;1016;48.770;9.154;2023-08-30T02:56:42;28.87;;;4.70;;
2023;SDS011;1016;48.770;9.154;2023-08-30T02:59:09;30.47;;;5.00;;
2023;SDS011;1016;48.770;9.154;2023-08-30T03:01:35;29.90;;;5.30;;
2023;SDS011;1016;48.770;9.154;2023-08-30T03:04:01;29.00;;;5.27;;
2023;SDS011;1016;48.770;9.154;2023-08-30T03:06:29;29.30;;;4.57;;
2023;SDS011;1016;48.770;9.154;2023-08-30T03:08:54;29.43;;;5.70;;
2023;SDS011;1016;48.770;9.154;2023-08-30T03:11:20;31.80;;;4.93;;
2023;SDS011;1016;48.770;9.154;2023-08-30T03:13:45;28.30;;;5.33;;
2023;SDS011;1016;48.770;9.154;2023-08-30T03:16:11;29.00;;;4.73;;
2023;SDS011;1016;48.770;9.154;2023-08-30T03:18:38;29.03;;;5.40;;
2023;SDS011;1016;48.770;9.154;2023-08-30T03:21:04;29.00;;;4.90;;
2023;SDS011;1016;48.770;9.154;2023-08-30T03:23:30;29.83;;;5.40;;
2023;SDS011;1016;48.770;9.154;2023-08-30T03:25:57;31.57;;;5.50;;
2023;SDS011;1016;48.770;9.154;2023-08-30T03:28:23;31.43;;;5.50;;
2023;SDS011;1016;48.770;9.154;2023-08-30T03:30:48;29.53;;;5.53;;
2023;SDS011;1016;48.770;9.154;2023-08-30T03:33:14;30.50;;;5.83;;
2023;SDS011;1016;48.770;9.154;2023-08-30T03:35:39;30.77;;;5.67;;
2023;SDS011;1016;48.770;9.154;2023-08-30T03:38:05;28.87;;;5.70;;
2023;SDS011;1016;48.770;9.154;2023-08-30T03:40:31;29.47;;;5.70;;
2023;SDS011;1016;48.770;9.154;2023-08-30T03:42:56;30.17;;;6.00;;
2023;SDS011;1016;48.770;9.154;2023-08-30T03:45:22;31.80;;;6.73;;
2023;SDS011;1016;48.770;9.154;2023-08-30T03:47:47;30.83;;;6.40;;
2023;SDS011;1016;48.770;9.154;2023-08-30T03:50:13;29.30;;;5.93;;
2023;SDS011;1016;48.770;9.154;2023-08-30T03:52:38;29.60;;;6.10;;
2023;SDS011;1016;48.770;9.154;2023-08-30T03:55:04;29.70;;;5.60;;
2023;SDS011;1016;48.770;9.154;2023-08-30T03:57:30;30.80;;;6.50;;
2023;SDS011;1016;48.770;9.154;2023-08-30T03:59:57;29.57;;;6.20;;
2023;SDS011;1016;48.770;9.154;2023-08-30T04:02:22;32.10;;;6.23;;
2023;SDS011;1016;48.770;9.154;2023-08-30T04:04:48;30.17;;;6.60;;
2023;SDS011;1016;48.770;9.154;2023-08-30T04:07:14;30.57;;;6.70;;
2023;SDS011;1016;48.770;9.154;2023-08-30T04:09:40;30.97;;;6.73;;
2023;SDS011;1016;48.770;9.154;2023-08-30T04:12:06;30.20;;;6.70;;
2023;SDS011;1016;48.770;9.154;2023-08-30T04:14:32;31.47;;;6.70;;
2023;SDS011;1016;48.770;9.154;2023-08-30T04:16:57;31.57;;;6.50;;
2023;SDS011;1016;48.770;9.154;2023-08-30T04:19:23;30.40;;;7.00;;
2023;SDS011;1016;48.770;9.154;2023-08-30T04:21:48;29.23;;;6.57;;
2023;SDS011;1016;48.770;9.154;2023-08-30T04:24:14;30.47;;;6.60;;
2023;SDS011;1016;48.770;9.154;2023-08-30T04:26:40;31.53;;;6.63;;
2023;SDS011;1016;48.770;9.154;2023-08-30T04:29:06;30.63;;;7.07;;
2023;SDS011;1016;48.770;9.154;2023-08-30T04:31:32;30.40;;;6.70;;
2023;SDS011;1016;48.770;9.154;2023-08-30T04:33:57;29.83;;;6.30;;
2023;SDS011;1016;48.770;9.154;2023-08-30T04:36:23;29.97;;;6.97;;
2023;SDS011;1016;48.770;9.154;2023-08-30T04:38:48;31.23;;;7.07;;
2023;SDS011;1016;48.770;9.154;2023-08-30T04:41:14;31.97;;;7.57;;
2023;SDS011;1016;48.770;9.154;2023-08-30T04:43:40;31.13;;;6.83;;
2023;SDS011;1016;48.770;9.154;2023-08-30T04:46:05;31.10;;;7.70;;
2023;SDS011;1016;48.770;9.154;2023-08-30T04:48:31;31.43;;;7.50;;
2023;SDS011;1016;48.770;9.154;2023-08-30T04:51:03;31.57;;;7.30;;
2023;SDS011;1016;48.770;9.154;2023-08-30T04:53:29;32.93;;;7.13;;
2023;SDS011;1016;48.770;9.154;2023-08-30T04:55:55;30.80;;;7.57;;
2023;SDS011;1016;48.770;9.154;2023-08-30T04:58:20;32.37;;;7.50;;
2023;SDS011;1016;48.770;9.154;2023-08-30T05:00:46;30.77;;;7.57;;
2023;SDS011;1016;48.770;9.154;2023-08-30T05:03:12;30.40;;;7.13;;
2023;SDS011;1016;48.770;9.154;2023-08-30T05:05:37;31.80;;;7.50;;
2023;SDS011;1016;48.770;9.154;2023-08-30T05:08:03;31.77;;;7.70;;
2023;SDS011;1016;48.770;9.154;2023-08-30T05:10:29;30.30;;;7.00;;
2023;SDS011;1016;48.770;9.154;2023-08-30T05:12:54;30.30;;;7.13;;
2023;SDS011;1016;48.770;9.154;2023-08-30T05:15:20;31.60;;;6.80;;
2023;SDS011;1016;48.770;9.154;2023-08-30T05:17:46;30.30;;;7.20;;
2023;SDS011;1016;48.770;9.154;2023-08-30T05:20:12;30.50;;;6.87;;
2023;SDS011;1016;48.770;9.154;2023-08-30T05:22:38;31.50;;;6.70;;
2023;SDS011;1016;48.770;9.154;2023-08-30T05:25:04;31.30;;;7.57;;
2023;SDS011;1016;48.770;9.154;2023-08-30T05:27:29;31.57;;;7.20;;
2023;SDS011;1016;48.770;9.154;2023-08-30T05:29:55;32.87;;;7.20;;
2023;SDS011;1016;48.770;9.154;2023-08-30T05:32:21;31.57;;;7.83;;
2023;SDS011;1016;48.770;9.154;2023-08-30T05:34:46;30.27;;;6.93;;
2023;SDS011;1016;48.770;9.154;2023-08-30T05:37:12;30.27;;;7.00;;
2023;SDS011;1016;48.770;9.154;2023-08-30T05:39:38;30.20;;;7.00;;
2023;SDS011;1016;48.770;9.154;2023-08-30T05:42:04;29.73;;;6.70;;
2023;SDS011;1016;48.770;9.154;2023-08-30T05:44:30;31.40;;;7.30;;
2023;SDS011;1016;48.770;9.154;2023-08-30T05:46:55;30.87;;;7.50;;
2023;SDS011;1016;48.770;9.154;2023-08-30T05:49:21;30.77;;;7.00;;
2023;SDS011;1016;48.770;9.154;2023-08-30T05:51:46;30.87;;;6.10;;
2023;SDS011;1016;48.770;9.154;2023-08-30T05:54:12;30.10;;;6.40;;
2023;SDS011;1016;48.770;9.154;2023-08-30T05:56:39;32.13;;;6.80;;
2023;SDS011;1016;48.770;9.154;2023-08-30T05:59:06;31.60;;;6.73;;
2023;SDS011;1016;48.770;9.154;2023-08-30T06:01:32;30.93;;;6.97;;
2023;SDS011;1016;48.770;9.154;2023-08-30T06:03:58;31.03;;;6.63;;
2023;SDS011;1016;48.770;9.154;2023-08-30T06:06:23;30.27;;;6.73;;
2023;SDS011;1016;48.770;9.154;2023-08-30T06:08:49;30.40;;;6.10;;
2023;SDS011;1016;48.770;9.154;2023-08-30T06:11:16;29.20;;;5.83;;
2023;SDS011;1016;48.770;9.154;2023-08-30T06:13:42;30.50;;;6.17;;
2023;SDS011;1016;48.770;9.154;2023-08-30T06:16:10;29.33;;;6.03;;
2023;SDS011;1016;48.770;9.154;2023-08-30T06:18:36;30.13;;;6.13;;
2023;SDS011;1016;48.770;9.154;2023-08-30T06:21:04;30.10;;;6.13;;
2023;SDS011;1016;48.770;9.154;2023-08-30T06:23:29;29.27;;;5.90;;
2023;SDS011;1016;48.770;9.154;2023-08-30T06:25:55;32.43;;;6.23;;
2023;SDS011;1016;48.770;9.154;2023-08-30T06:28:21;30.90;;;6.07;;
2023;SDS011;1016;48.770;9.154;2023-08-30T06:30:47;30.00;;;5.90;;
2023;SDS011;1016;48.770;9.154;2023-08-30T06:33:13;29.27;;;5.77;;
2023;SDS011;1016;48.770;9.154;2023-08-30T06:35:39;31.10;;;5.83;;
2023;SDS011;1016;48.770;9.154;2023-08-30T06:38:05;30.30;;;5.97;;
2023;SDS011;1016;48.770;9.154;2023-08-30T06:40:30;29.60;;;5.77;;
2023;SDS011;1016;48.770;9.154;2023-08-30T06:42:57;29.90;;;6.23;;
2023;SDS011;1016;48.770;9.154;2023-08-30T06:45:24;31.07;;;5.70;;
2023;SDS011;1016;48.770;9.154;2023-08-30T06:47:50;30.10;;;6.00;;
2023;SDS011;1016;48.770;9.154;2023-08-30T06:50:19;30.00;;;6.00;;
2023;SDS011;1016;48.770;9.154;2023-08-30T06:52:47;29.30;;;5.70;;
2023;SDS011;1016;48.770;9.154;2023-08-30T06:55:14;31.00;;;6.00;;
2023;SDS011;1016;48.770;9.154;2023-08-30T06:57:47;29.93;;;6.37;;
2023;SDS011;1016;48.770;9.154;2023-08-30T07:00:13;31.80;;;6.83;;
2023;SDS011;1016;48.770;9.154;2023-08-30T07:02:39;29.53;;;6.13;;
2023;SDS011;1016;48.770;9.154;2023-08-30T07:05:05;30.63;;;5.57;;
2023;SDS011;1016;48.770;9.154;2023-08-30T07:07:31;29.60;;;5.70;;
2023;SDS011;1016;48.770;9.154;2023-08-30T07:09:57;30.00;;;5.37;;
2023;SDS011;1016;48.770;9.154;2023-08-30T07:12:33;30.17;;;5.20;;
2023;SDS011;1016;48.770;9.154;2023-08-30T07:14:59;29.50;;;6.00;;
2023;SDS011;1016;48.770;9.154;2023-08-30T07:17:25;29.53;;;6.10;;
2023;SDS011;1016;48.770;9.154;2023-08-30T07:19:50;29.47;;;6.00;;
2023;SDS011;1016;48.770;9.154;2023-08-30T07:22:16;30.27;;;5.80;;
2023;SDS011;1016;48.770;9.154;2023-08-30T07:24:42;29.33;;;6.60;;
2023;SDS011;1016;48.770;9.154;2023-08-30T07:27:08;30.27;;;6.80;;
2023;SDS011;1016;48.770;9.154;2023-08-30T07:29:34;30.90;;;7.00;;
2023;SDS011;1016;48.770;9.154;2023-08-30T07:32:00;29.87;;;6.17;;
2023;SDS011;1016;48.770;9.154;2023-08-30T07:34:25;29.60;;;6.00;;
2023;SDS011;1016;48.770;9.154;2023-08-30T07:36:53;30.13;;;5.80;;
2023;SDS011;1016;48.770;9.154;2023-08-30T07:39:21;29.27;;;5.43;;
2023;SDS011;1016;48.770;9.154;2023-08-30T07:41:46;29.63;;;5.90;;
2023;SDS011;1016;48.770;9.154;2023-08-30T07:44:12;29.73;;;5.83;;
2023;SDS011;1016;48.770;9.154;2023-08-30T07:46:37;30.67;;;6.00;;
2023;SDS011;1016;48.770;9.154;2023-08-30T07:49:03;29.97;;;5.87;;
2023;SDS011;1016;48.770;9.154;2023-08-30T07:51:29;30.27;;;5.93;;
2023;SDS011;1016;48.770;9.154;2023-08-30T07:53:55;30.33;;;6.27;;
2023;SDS011;1016;48.770;9.154;2023-08-30T07:56:21;29.20;;;5.60;;
2023;SDS011;1016;48.770;9.154;2023-08-30T07:58:47;29.77;;;5.63;;
2023;SDS011;1016;48.770;9.154;2023-08-30T08:01:15;29.53;;;6.27;;
2023;SDS011;1016;48.770;9.154;2023-08-30T08:03:41;29.87;;;6.23;;
2023;SDS011;1016;48.770;9.154;2023-08-30T08:06:07;29.87;;;6.77;;
2023;SDS011;1016;48.770;9.154;2023-08-30T08:08:33;30.47;;;6.80;;
2023;SDS011;1016;48.770;9.154;2023-08-30T08:11:01;30.73;;;7.50;;
2023;SDS011;1016;48.770;9.154;2023-08-30T08:13:28;31.43;;;6.83;;
2023;SDS011;1016;48.770;9.154;2023-08-30T08:15:56;28.40;;;5.70;;
2023;SDS011;1016;48.770;9.154;2023-08-30T08:18:24;30.60;;;6.07;;
2023;SDS011;1016;48.770;9.154;2023-08-30T08:20:53;29.40;;;5.60;;
2023;SDS011;1016;48.770;9.154;2023-08-30T08:23:22;29.70;;;6.40;;
2023;SDS011;1016;48.770;9.154;2023-08-30T08:25:56;30.47;;;5.80;;
2023;SDS011;1016;48.770;9.154;2023-08-30T08:28:33;31.33;;;5.73;;
2023;SDS011;1016;48.770;9.154;2023-08-30T08:31:00;28.63;;;5.73;;
2023;SDS011;1016;48.770;9.154;2023-08-30T08:33:31;29.73;;;5.53;;
2023;SDS011;1016;48.770;9.154;2023-08-30T08:36:00;28.77;;;5.30;;
2023;SDS011;1016;48.770;9.154;2023-08-30T08:38:26;29.80;;;5.43;;
2023;SDS011;1016;48.770;9.154;2023-08-30T08:41:02;31.83;;;5.10;;
2023;SDS011;1016;48.770;9.154;2023-08-30T08:43:50;30.70;;;5.80;;
2023;SDS011;1016;48.770;9.154;2023-08-30T08:46:16;28.70;;;5.10;;
2023;SDS011;1016;48.770;9.154;2023-08-30T08:48:44;28.37;;;5.10;;
2023;SDS011;1016;48.770;9.154;2023-08-30T08:51:12;28.90;;;5.37;;
2023;SDS011;1016;48.770;9.154;2023-08-30T08:53:39;29.07;;;5.37;;
2023;SDS011;1016;48.770;9.154;2023-08-30T08:56:06;30.03;;;5.20;;
2023;SDS011;1016;48.770;9.154;2023-08-30T08:58:33;28.70;;;4.80;;
2023;SDS011;1016;48.770;9.154;2023-08-30T09:01:01;28.77;;;5.60;;
2023;SDS011;1016;48.770;9.154;2023-08-30T09:03:28;29.93;;;5.00;;
2023;SDS011;1016;48.770;9.154;2023-08-30T09:05:54;29.53;;;5.03;;
2023;SDS011;1016;48.770;9.154;2023-08-30T09:08:20;28.87;;;5.90;;
2023;SDS011;1016;48.770;9.154;2023-08-30T09:10:46;30.33;;;5.47;;
2023;SDS011;1016;48.770;9.154;2023-08-30T09:13:15;29.47;;;5.50;;
2023;SDS011;1016;48.770;9.154;2023-08-30T09:15:41;28.57;;;5.20;;
2023;SDS011;1016;48.770;9.154;2023-08-30T09:18:16;30.90;;;5.20;;
2023;SDS011;1016;48.770;9.154;2023-08-30T09:20:42;27.83;;;5.23;;
2023;SDS011;1016;48.770;9.154;2023-08-30T09:23:20;29.47;;;4.80;;
2023;SDS011;1016;48.770;9.154;2023-08-30T09:25:46;28.50;;;4.73;;
2023;SDS011;1016;48.770;9.154;2023-08-30T09:28:18;28.07;;;4.30;;
2023;SDS011;1016;48.770;9.154;2023-08-30T09:30:48;29.33;;;4.70;;
2023;SDS011;1016;48.770;9.154;2023-08-30T09:33:15;28.60;;;4.80;;
2023;SDS011;1016;48.770;9.154;2023-08-30T09:35:44;28.63;;;4.60;;
2023;SDS011;1016;48.770;9.154;2023-08-30T09:38:15;29.47;;;5.40;;
2023;SDS011;1016;48.770;9.154;2023-08-30T09:40:44;29.60;;;5.13;;
2023;SDS011;1016;48.770;9.154;2023-08-30T09:43:11;28.00;;;4.40;;
2023;SDS011;1016;48.770;9.154;2023-08-30T09:45:37;30.57;;;4.33;;
2023;SDS011;1016;48.770;9.154;2023-08-30T09:48:04;27.60;;;3.73;;
2023;SDS011;1016;48.770;9.154;2023-08-30T09:50:32;29.33;;;3.67;;
2023;SDS011;1016;48.770;9.154;2023-08-30T09:53:01;27.90;;;4.10;;
2023;SDS011;1016;48.770;9.154;2023-08-30T09:55:33;27.73;;;3.80;;
2023;SDS011;1016;48.770;9.154;2023-08-30T09:58:00;27.87;;;3.43;;
2023;SDS011;1016;48.770;9.154;2023-08-30T10:00:27;28.60;;;3.97;;
2023;SDS011;1016;48.770;9.154;2023-08-30T10:02:53;28.77;;;3.60;;
2023;SDS011;1016;48.770;9.154;2023-08-30T10:05:20;28.03;;;3.70;;
2023;SDS011;1016;48.770;9.154;2023-08-30T10:07:47;27.30;;;3.40;;
2023;SDS011;1016;48.770;9.154;2023-08-30T10:10:13;27.80;;;4.30;;
2023;SDS011;1016;48.770;9.154;2023-08-30T10:12:39;27.33;;;3.60;;
2023;SDS011;1016;48.770;9.154;2023-08-30T10:15:10;28.30;;;3.10;;
2023;SDS011;1016;48.770;9.154;2023-08-30T10:17:35;27.53;;;2.97;;
2023;SDS011;1016;48.770;9.154;2023-08-30T10:20:04;27.57;;;2.80;;
2023;SDS011;1016;48.770;9.154;2023-08-30T10:22:31;28.10;;;3.20;;
2023;SDS011;1016;48.770;9.154;2023-08-30T10:25:01;34.03;;;3.17;;
2023;SDS011;1016;48.770;9.154;2023-08-30T10:27:36;28.40;;;3.47;;
2023;SDS011;1016;48.770;9.154;2023-08-30T10:30:05;27.00;;;2.90;;
2023;SDS011;1016;48.770;9.154;2023-08-30T10:32:32;28.27;;;2.77;;
2023;SDS011;1016;48.770;9.154;2023-08-30T10:35:03;26.80;;;2.93;;
2023;SDS011;1016;48.770;9.154;2023-08-30T10:37:29;27.07;;;2.47;;
2023;SDS011;1016;48.770;9.154;2023-08-30T10:39:59;26.80;;;2.70;;
2023;SDS011;1016;48.770;9.154;2023-08-30T10:42:28;27.57;;;3.20;;
2023;SDS011;1016;48.770;9.154;2023-08-30T10:44:58;27.33;;;3.20;;
2023;SDS011;1016;48.770;9.154;2023-08-30T10:47:26;27.23;;;2.90;;
2023;SDS011;1016;48.770;9.154;2023-08-30T10:49:54;27.20;;;3.10;;
2023;SDS011;1016;48.770;9.154;2023-08-30T10:52:21;27.10;;;2.90;;
2023;SDS011;1016;48.770;9.154;2023-08-30T10:54:48;27.43;;;3.00;;
2023;SDS011;1016;48.770;9.154;2023-08-30T10:57:15;28.20;;;2.70;;
2023;SDS011;1016;48.770;9.154;2023-08-30T11:02:30;27.57;;;2.90;;
2023;SDS011;1016;48.770;9.154;2023-08-30T11:04:57;27.37;;;3.00;;
2023;SDS011;1016;48.770;9.154;2023-08-30T11:07:27;27.77;;;3.10;;
2023;SDS011;1016;48.770;9.154;2023-08-30T11:09:53;27.53;;;3.50;;
2023;SDS011;1016;48.770;9.154;2023-08-30T11:12:19;27.00;;;2.70;;
2023;SDS011;1016;48.770;9.154;2023-08-30T11:14:47;27.47;;;3.17;;
2023;SDS011;1016;48.770;9.154;2023-08-30T11:17:15;27.30;;;3.13;;
2023;SDS011;1016;48.770;9.154;2023-08-30T11:19:42;28.87;;;3.03;;
2023;SDS011;1016;48.770;9.154;2023-08-30T11:22:07;30.40;;;3.50;;
2023;SDS011;1016;48.770;9.154;2023-08-30T11:24:33;29.73;;;3.23;;
2023;SDS011;1016;48.770;9.154;2023-08-30T11:26:59;27.40;;;2.70;;
2023;SDS011;1016;48.770;9.154;2023-08-30T11:29:26;28.00;;;3.30;;
2023;SDS011;1016;48.770;9.154;2023-08-30T11:31:52;28.27;;;3.03;;
2023;SDS011;1016;48.770;9.154;2023-08-30T11:34:19;30.30;;;3.87;;
2023;SDS011;1016;48.770;9.154;2023-08-30T11:36:46;30.20;;;3.37;;
2023;SDS011;1016;48.770;9.154;2023-08-30T11:39:12;27.40;;;3.67;;
2023;SDS011;1016;48.770;9.154;2023-08-30T11:41:39;27.60;;;4.20;;
2023;SDS011;1016;48.770;9.154;2023-08-30T11:44:05;28.30;;;4.00;;
2023;SDS011;1016;48.770;9.154;2023-08-30T11:46:30;27.90;;;4.50;;
2023;SDS011;1016;48.770;9.154;2023-08-30T11:48:57;28.20;;;4.03;;
2023;SDS011;1016;48.770;9.154;2023-08-30T11:51:22;27.90;;;3.33;;
2023;SDS011;1016;48.770;9.154;2023-08-30T11:53:48;27.23;;;3.70;;
2023;SDS011;1016;48.770;9.154;2023-08-30T11:56:14;27.80;;;3.73;;
2023;SDS011;1016;48.770;9.154;2023-08-30T11:58:41;28.00;;;3.80;;
2023;SDS011;1016;48.770;9.154;2023-08-30T12:01:08;27.27;;;3.13;;
2023;SDS011;1016;48.770;9.154;2023-08-30T12:03:34;27.80;;;3.80;;
2023;SDS011;1016;48.770;9.154;2023-08-30T12:06:00;27.93;;;3.80;;
2023;SDS011;1016;48.770;9.154;2023-08-30T12:08:27;27.53;;;3.10;;
2023;SDS011;1016;48.770;9.154;2023-08-30T12:10:54;27.20;;;3.40;;
2023;SDS011;1016;48.770;9.154;2023-08-30T12:13:21;27.23;;;2.80;;
2023;SDS011;1016;48.770;9.154;2023-08-30T12:15:53;28.20;;;3.20;;
2023;SDS011;1016;48.770;9.154;2023-08-30T12:18:23;27.60;;;3.40;;
2023;SDS011;1016;48.770;9.154;2023-08-30T12:20:52;27.50;;;3.53;;
2023;SDS011;1016;48.770;9.154;2023-08-30T12:23:22;28.47;;;3.50;;
2023;SDS011;1016;48.770;9.154;2023-08-30T12:26:07;27.30;;;3.63;;
2023;SDS011;1016;48.770;9.154;2023-08-30T12:28:38;27.40;;;4.17;;
2023;SDS011;1016;48.770;9.154;2023-08-30T12:31:05;28.53;;;4.60;;
2023;SDS011;1016;48.770;9.154;2023-08-30T12:33:32;28.10;;;3.30;;
2023;SDS011;1016;48.770;9.154;2023-08-30T12:35:58;28.80;;;4.30;;
2023;SDS011;1016;48.770;9.154;2023-08-30T12:38:24;29.73;;;4.23;;
2023;SDS011;1016;48.770;9.154;2023-08-30T12:40:51;28.43;;;4.03;;
2023;SDS011;1016;48.770;9.154;2023-08-30T12:43:18;30.00;;;4.20;;
2023;SDS011;1016;48.770;9.154;2023-08-30T12:45:44;28.67;;;4.40;;
2023;SDS011;1016;48.770;9.154;2023-08-30T12:48:11;27.47;;;3.73;;
2023;SDS011;1016;48.770;9.154;2023-08-30T12:50:39;27.90;;;4.27;;
2023;SDS011;1016;48.770;9.154;2023-08-30T12:53:05;27.90;;;4.10;;
2023;SDS011;1016;48.770;9.154;2023-08-30T12:55:31;29.03;;;4.10;;
2023;SDS011;1016;48.770;9.154;2023-08-30T12:57:57;28.07;;;4.60;;
2023;SDS011;1016;48.770;9.154;2023-08-30T13:00:23;28.00;;;4.40;;
2023;SDS011;1016;48.770;9.154;2023-08-30T13:02:50;28.20;;;4.63;;
2023;SDS011;1016;48.770;9.154;2023-08-30T13:05:15;29.30;;;4.40;;
2023;SDS011;1016;48.770;9.154;2023-08-30T13:07:41;28.90;;;4.13;;
2023;SDS011;1016;48.770;9.154;2023-08-30T13:10:07;27.90;;;4.20;;
2023;SDS011;1016;48.770;9.154;2023-08-30T13:12:33;28.10;;;4.00;;
2023;SDS011;1016;48.770;9.154;2023-08-30T13:14:59;27.37;;;4.00;;
2023;SDS011;1016;48.770;9.154;2023-08-30T13:17:25;27.97;;;3.60;;
2023;SDS011;1016;48.770;9.154;2023-08-30T13:19:50;28.47;;;3.90;;
2023;SDS011;1016;48.770;9.154;2023-08-30T13:22:16;27.00;;;3.93;;
2023;SDS011;1016;48.770;9.154;2023-08-30T13:24:41;28.03;;;4.03;;
2023;SDS011;1016;48.770;9.154;2023-08-30T13:27:07;28.70;;;3.80;;
2023;SDS011;1016;48.770;9.154;2023-08-30T13:29:33;27.07;;;3.77;;
2023;SDS011;1016;48.770;9.154;2023-08-30T13:31:58;29.60;;;4.50;;
2023;SDS011;1016;48.770;9.154;2023-08-30T13:34:24;28.27;;;4.63;;
2023;SDS011;1016;48.770;9.154;2023-08-30T13:36:49;28.17;;;3.87;;
2023;SDS011;1016;48.770;9.154;2023-08-30T13:39:15;27.77;;;4.10;;
2023;SDS011;1016;48.770;9.154;2023-08-30T13:41:40;27.00;;;3.10;;
2023;SDS011;1016;48.770;9.154;2023-08-30T13:44:06;27.10;;;3.30;;
2023;SDS011;1016;48.770;9.154;2023-08-30T13:46:31;28.80;;;4.10;;
2023;SDS011;1016;48.770;9.154;2023-08-30T13:48:58;27.80;;;3.50;;
2023;SDS011;1016;48.770;9.154;2023-08-30T13:51:24;28.20;;;3.47;;
2023;SDS011;1016;48.770;9.154;2023-08-30T13:53:51;27.27;;;3.27;;
2023;SDS011;1016;48.770;9.154;2023-08-30T13:56:16;28.17;;;3.53;;
2023;SDS011;1016;48.770;9.154;2023-08-30T13:58:43;27.80;;;3.77;;
2023;SDS011;1016;48.770;9.154;2023-08-30T14:01:09;27.50;;;3.03;;
2023;SDS011;1016;48.770;9.154;2023-08-30T14:03:34;28.30;;;3.70;;
2023;SDS011;1016;48.770;9.154;2023-08-30T14:06:00;27.97;;;3.30;;
2023;SDS011;1016;48.770;9.154;2023-08-30T14:08:25;27.60;;;3.30;;
2023;SDS011;1016;48.770;9.154;2023-08-30T14:10:51;27.33;;;3.40;;
2023;SDS011;1016;48.770;9.154;2023-08-30T14:13:16;27.07;;;2.93;;
2023;SDS011;1016;48.770;9.154;2023-08-30T14:15:42;26.77;;;3.57;;
2023;SDS011;1016;48.770;9.154;2023-08-30T14:18:08;27.60;;;3.50;;
2023;SDS011;1016;48.770;9.154;2023-08-30T14:20:33;27.67;;;3.30;;
2023;SDS011;1016;48.770;9.154;2023-08-30T14:22:59;28.20;;;3.97;;
2023;SDS011;1016;48.770;9.154;2023-08-30T14:25:25;27.50;;;3.60;;
2023;SDS011;1016;48.770;9.154;2023-08-30T14:27:50;28.00;;;3.30;;
2023;SDS011;1016;48.770;9.154;2023-08-30T14:30:16;27.67;;;3.77;;
2023;SDS011;1016;48.770;9.154;2023-08-30T14:32:41;27.53;;;3.10;;
2023;SDS011;1016;48.770;9.154;2023-08-30T14:35:07;27.50;;;3.17;;
2023;SDS011;1016;48.770;9.154;2023-08-30T14:37:33;27.83;;;3.20;;
2023;SDS011;1016;48.770;9.154;2023-08-30T14:40:01;27.70;;;3.27;;
2023;SDS011;1016;48.770;9.154;2023-08-30T14:42:28;27.07;;;3.27;;
2023;SDS011;1016;48.770;9.154;2023-08-30T14:44:54;27.30;;;3.10;;
2023;SDS011;1016;48.770;9.154;2023-08-30T14:47:20;27.37;;;3.10;;
2023;SDS011;1016;48.770;9.154;2023-08-30T14:49:46;27.30;;;3.00;;
2023;SDS011;1016;48.770;9.154;2023-08-30T14:52:12;27.63;;;3.03;;
2023;SDS011;1016;48.770;9.154;2023-08-30T14:54:38;27.50;;;3.17;;
2023;SDS011;1016;48.770;9.154;2023-08-30T14:57:04;27.80;;;3.60;;
2023;SDS011;1016;48.770;9.154;2023-08-30T14:59:29;28.43;;;3.50;;
2023;SDS011;1016;48.770;9.154;2023-08-30T15:02:01;27.60;;;3.20;;
2023;SDS011;1016;48.770;9.154;2023-08-30T15:04:27;28.63;;;3.00;;
2023;SDS011;1016;48.770;9.154;2023-08-30T15:06:52;27.67;;;3.33;;
2023;SDS011;1016;48.770;9.154;2023-08-30T15:09:18;29.73;;;3.20;;